Time;durP1;ratioP1;P1;durP2;ratioP2;P2;SDS_P1;SDS_P2;PMS_P1;PMS_P2;Temp;Humidity;BMP_temperature;BMP_pressure;BME280_temperature;BME280_humidity;BME280_pressure;Samples;Min_cycle;Max_cycle;Signal;HPM_P1;HPM_P2
2022/04/25 00:01:57;;;;;;;11.05;4.93;;;8.40;99.90;;;;;;5028698;28;20481;-75
2022/04/25 00:04:24;;;;;;;10.88;5.28;;;8.40;99.90;;;;;;5030310;28;20551;-74
2022/04/25 00:06:50;;;;;;;10.15;5.68;;;8.40;99.90;;;;;;5026038;28;20649;-74
2022/04/25 00:09:15;;;;;;;10.25;4.75;;;8.40;99.90;;;;;;5047534;28;20025;-75
2022/04/25 00:11:41;;;;;;;8.30;4.60;;;8.40;99.90;;;;;;5031673;28;20025;-76
2022/04/25 00:14:07;;;;;;;9.20;4.38;;;8.40;99.90;;;;;;5029560;28;20037;-75
2022/04/25 00:16:33;;;;;;;8.98;4.95;;;8.50;99.90;;;;;;5032322;28;20450;-75
2022/04/25 00:19:01;;;;;;;14.85;7.30;;;8.40;99.90;;;;;;5049688;28;20040;-74
2022/04/25 00:21:26;;;;;;;8.73;4.80;;;8.40;99.90;;;;;;5047955;28;20107;-74
2022/04/25 00:23:52;;;;;;;11.52;5.88;;;8.40;99.90;;;;;;5029669;28;20104;-74
2022/04/25 00:26:18;;;;;;;10.70;5.13;;;8.40;99.90;;;;;;5016108;28;20017;-74
2022/04/25 00:28:44;;;;;;;10.52;5.25;;;8.30;99.90;;;;;;5029473;28;20074;-73
2022/04/25 00:31:10;;;;;;;11.35;4.57;;;8.30;99.90;;;;;;5014892;28;21833;-74
2022/04/25 00:33:37;;;;;;;9.35;4.40;;;8.30;99.90;;;;;;5047080;28;20032;-73
2022/04/25 00:36:03;;;;;;;12.55;4.75;;;8.20;99.90;;;;;;5045121;28;20067;-74
2022/04/25 00:38:29;;;;;;;9.93;5.10;;;8.30;99.90;;;;;;5047601;28;20025;-74
2022/04/25 00:40:54;;;;;;;8.93;4.75;;;8.20;99.90;;;;;;5031132;28;20499;-74
2022/04/25 00:43:20;;;;;;;8.00;4.80;;;8.30;99.90;;;;;;5028925;28;20497;-75
2022/04/25 00:45:46;;;;;;;6.30;4.57;;;8.20;99.90;;;;;;5043801;28;20021;-74
2022/04/25 00:48:12;;;;;;;11.48;5.60;;;8.30;99.90;;;;;;5028652;28;20033;-73
2022/04/25 00:50:39;;;;;;;9.80;5.40;;;8.30;99.90;;;;;;5029273;28;20032;-73
2022/04/25 00:53:06;;;;;;;8.02;4.45;;;8.20;99.90;;;;;;5027094;28;20430;-74
2022/04/25 00:55:31;;;;;;;7.60;4.22;;;8.20;99.90;;;;;;5045458;28;20159;-74
2022/04/25 00:57:58;;;;;;;7.03;3.88;;;8.20;99.90;;;;;;5025299;28;20037;-72
2022/04/25 01:00:24;;;;;;;7.95;4.22;;;8.20;99.90;;;;;;5046769;28;20124;-74
2022/04/25 01:02:51;;;;;;;7.93;4.43;;;8.20;99.90;;;;;;5046877;28;20025;-73
2022/04/25 01:05:17;;;;;;;9.20;4.45;;;8.10;99.90;;;;;;5028845;28;20035;-73
2022/04/25 01:07:42;;;;;;;7.97;3.60;;;8.10;99.90;;;;;;5012178;28;20467;-75
2022/04/25 01:10:10;;;;;;;6.35;3.80;;;8.10;99.90;;;;;;5035741;28;20033;-74
2022/04/25 01:12:37;;;;;;;10.60;3.75;;;8.10;99.90;;;;;;5053099;28;20074;-75
2022/04/25 01:15:08;;;;;;;10.88;4.45;;;8.10;99.90;;;;;;5015083;28;20025;-75
2022/04/25 01:17:34;;;;;;;9.75;4.88;;;8.10;99.90;;;;;;5052712;28;20033;-75
2022/04/25 01:20:00;;;;;;;7.43;3.97;;;8.10;99.90;;;;;;5033233;28;20035;-74
2022/04/25 01:22:39;;;;;;;9.18;3.90;;;8.10;99.90;;;;;;5018136;28;20504;-74
2022/04/25 01:27:49;;;;;;;11.80;4.18;;;8.10;99.90;;;;;;5048440;28;20100;-74
2022/04/25 01:30:14;;;;;;;8.13;4.63;;;8.10;99.90;;;;;;5051086;28;20159;-74
2022/04/25 01:32:40;;;;;;;8.27;3.40;;;8.10;99.90;;;;;;5034985;28;20029;-73
2022/04/25 01:35:07;;;;;;;6.97;3.30;;;8.10;99.90;;;;;;5038928;28;20040;-74
2022/04/25 01:37:32;;;;;;;6.38;3.47;;;8.10;99.90;;;;;;5032200;28;20039;-74
2022/04/25 01:39:58;;;;;;;7.15;3.25;;;8.10;99.90;;;;;;5033481;28;20033;-74
2022/04/25 01:42:24;;;;;;;8.38;4.07;;;8.10;99.90;;;;;;5018217;28;20039;-74
2022/04/25 01:44:51;;;;;;;10.55;3.95;;;8.10;99.90;;;;;;5036100;28;20033;-73
2022/04/25 01:47:17;;;;;;;7.05;3.17;;;8.10;99.90;;;;;;5048200;28;20070;-74
2022/04/25 01:49:43;;;;;;;7.28;3.50;;;8.10;99.90;;;;;;5050035;28;20044;-74
2022/04/25 01:52:33;;;;;;;7.25;3.72;;;8.10;99.90;;;;;;5034349;28;20495;-74
2022/04/25 01:55:01;;;;;;;7.05;3.25;;;8.20;99.90;;;;;;5036030;28;20033;-75
2022/04/25 01:57:27;;;;;;;8.57;3.25;;;8.20;99.90;;;;;;5055267;28;20029;-73
2022/04/25 01:59:53;;;;;;;7.97;3.42;;;8.20;99.90;;;;;;5034267;28;20079;-74
2022/04/25 02:02:22;;;;;;;7.72;3.72;;;8.20;99.90;;;;;;5051069;28;20902;-75
2022/04/25 02:04:48;;;;;;;7.03;3.40;;;8.20;99.90;;;;;;5051557;28;20127;-73
2022/04/25 02:07:13;;;;;;;6.45;3.47;;;8.20;99.90;;;;;;5017612;28;20107;-73
2022/04/25 02:09:39;;;;;;;7.43;3.47;;;8.20;99.90;;;;;;5035912;28;20032;-73
2022/04/25 02:12:06;;;;;;;8.45;3.20;;;8.20;99.90;;;;;;5053280;28;20114;-73
2022/04/25 02:14:32;;;;;;;10.77;3.55;;;8.10;99.90;;;;;;5035997;28;20051;-73
2022/04/25 02:17:01;;;;;;;8.27;4.15;;;8.10;99.90;;;;;;5035598;28;20383;-73
2022/04/25 02:19:29;;;;;;;7.57;3.00;;;8.10;99.90;;;;;;5028601;28;20120;-74
2022/04/25 02:21:55;;;;;;;7.43;3.50;;;8.10;99.90;;;;;;5035897;28;20017;-74
2022/04/25 02:24:21;;;;;;;8.00;3.50;;;8.10;99.90;;;;;;5035419;28;20032;-74
2022/04/25 02:26:48;;;;;;;8.10;3.17;;;8.10;99.90;;;;;;5054230;28;20522;-75
2022/04/25 02:29:14;;;;;;;8.77;3.67;;;8.10;99.90;;;;;;5035242;28;20076;-74
2022/04/25 02:31:40;;;;;;;7.90;3.45;;;8.10;99.90;;;;;;5032175;28;20016;-74
2022/04/25 02:34:06;;;;;;;9.02;3.28;;;8.00;99.90;;;;;;5036218;28;20036;-75
2022/04/25 02:36:31;;;;;;;38.90;4.25;;;8.00;99.90;;;;;;5049515;28;20101;-74
2022/04/25 02:38:57;;;;;;;6.47;3.42;;;8.00;99.90;;;;;;5056398;28;20108;-72
2022/04/25 02:41:22;;;;;;;8.32;3.15;;;7.90;99.90;;;;;;5053365;28;20037;-75
2022/04/25 02:43:48;;;;;;;10.20;3.15;;;7.90;99.90;;;;;;5037158;28;20052;-74
2022/04/25 02:46:16;;;;;;;6.68;3.53;;;7.90;99.90;;;;;;5035216;28;20029;-74
2022/04/25 02:48:44;;;;;;;6.53;3.45;;;7.80;99.90;;;;;;5053608;28;20142;-74
2022/04/25 02:51:10;;;;;;;6.43;3.13;;;7.80;99.90;;;;;;5033673;28;20071;-74
2022/04/25 02:53:37;;;;;;;6.63;2.83;;;7.80;99.90;;;;;;5053298;28;20041;-73
2022/04/25 02:56:05;;;;;;;8.05;3.38;;;7.80;99.90;;;;;;5055980;28;20039;-73
2022/04/25 02:58:33;;;;;;;11.32;3.50;;;7.70;99.90;;;;;;5038738;28;20043;-73
2022/04/25 03:00:59;;;;;;;9.95;3.28;;;7.70;99.90;;;;;;5049498;28;20039;-73
2022/04/25 03:03:25;;;;;;;7.72;3.42;;;7.70;99.90;;;;;;5034923;28;20029;-74
2022/04/25 03:05:52;;;;;;;7.63;2.90;;;7.70;99.90;;;;;;5050374;28;20081;-75
2022/04/25 03:08:20;;;;;;;10.13;3.92;;;7.60;99.90;;;;;;5049311;28;20508;-74
2022/04/25 03:10:47;;;;;;;8.77;3.78;;;7.60;99.90;;;;;;5037563;28;20029;-74
2022/04/25 03:13:14;;;;;;;9.38;3.00;;;7.60;99.90;;;;;;5057989;28;20112;-74
2022/04/25 03:15:41;;;;;;;9.05;3.88;;;7.50;99.90;;;;;;5054264;28;20384;-74
2022/04/25 03:18:08;;;;;;;8.15;3.17;;;7.50;99.90;;;;;;5055399;28;20454;-75
2022/04/25 03:20:34;;;;;;;11.15;3.47;;;7.50;99.90;;;;;;5035922;28;20040;-73
2022/04/25 03:23:00;;;;;;;8.48;3.10;;;7.50;99.90;;;;;;5038675;28;20095;-74
2022/04/25 03:25:26;;;;;;;7.10;3.67;;;7.40;99.90;;;;;;5035305;28;20037;-74
2022/04/25 03:27:52;;;;;;;14.15;3.67;;;7.50;99.90;;;;;;5033156;28;20052;-74
2022/04/25 03:30:18;;;;;;;6.95;3.30;;;7.50;99.90;;;;;;5039063;28;20031;-74
2022/04/25 03:32:47;;;;;;;8.90;3.22;;;7.40;99.90;;;;;;5039657;28;20468;-74
2022/04/25 03:35:14;;;;;;;8.30;3.70;;;7.30;99.90;;;;;;5057140;28;20436;-74
2022/04/25 03:37:41;;;;;;;7.72;3.67;;;7.30;99.90;;;;;;5053057;28;20089;-74
2022/04/25 03:40:09;;;;;;;8.93;3.20;;;7.30;99.90;;;;;;5023141;28;20810;-74
2022/04/25 03:42:36;;;;;;;6.70;3.58;;;7.30;99.90;;;;;;5052088;28;20048;-74
2022/04/25 03:45:09;;;;;;;8.80;3.20;;;7.30;99.90;;;;;;5054273;28;20099;-74
2022/04/25 03:47:35;;;;;;;10.70;3.92;;;7.30;99.90;;;;;;5058397;28;20044;-74
2022/04/25 03:50:01;;;;;;;8.77;3.50;;;7.30;99.90;;;;;;5056045;28;20105;-74
2022/04/25 03:52:27;;;;;;;9.40;3.53;;;7.30;99.90;;;;;;5038955;28;20099;-74
2022/04/25 03:57:37;;;;;;;7.30;3.38;;;7.30;99.90;;;;;;5054391;28;20027;-73
2022/04/25 04:00:05;;;;;;;8.65;3.65;;;7.30;99.90;;;;;;5021096;28;20028;-74
2022/04/25 04:02:31;;;;;;;6.40;3.03;;;7.30;99.90;;;;;;5046284;28;20029;-74
2022/04/25 04:04:57;;;;;;;7.60;3.72;;;7.20;99.90;;;;;;5021254;28;20082;-74
2022/04/25 04:07:22;;;;;;;7.03;3.38;;;7.20;99.90;;;;;;5029957;28;20583;-73
2022/04/25 04:09:49;;;;;;;6.68;3.28;;;7.20;99.90;;;;;;5040135;28;20025;-74
2022/04/25 04:12:19;;;;;;;6.53;3.70;;;7.20;99.90;;;;;;5056078;28;20109;-73
2022/04/25 04:14:45;;;;;;;8.75;3.22;;;7.10;99.90;;;;;;5039604;28;20044;-74
2022/04/25 04:17:12;;;;;;;6.63;3.30;;;7.10;99.90;;;;;;5043474;28;20029;-74
2022/04/25 04:19:39;;;;;;;8.93;3.50;;;7.10;99.90;;;;;;5023324;28;20547;-73
2022/04/25 04:22:05;;;;;;;7.05;3.25;;;7.20;99.90;;;;;;5050881;28;20578;-73
2022/04/25 04:24:32;;;;;;;5.30;3.25;;;7.10;99.90;;;;;;5054962;28;21149;-74
2022/04/25 04:27:01;;;;;;;7.60;2.92;;;7.10;99.90;;;;;;5036625;28;20032;-75
2022/04/25 04:29:29;;;;;;;5.63;3.45;;;7.10;99.90;;;;;;5022969;28;20089;-75
2022/04/25 04:32:01;;;;;;;7.22;3.20;;;7.10;99.90;;;;;;5054655;28;20070;-74
2022/04/25 04:34:27;;;;;;;8.75;3.15;;;7.10;99.90;;;;;;5035491;28;20546;-75
2022/04/25 04:36:53;;;;;;;4.93;3.20;;;7.00;99.90;;;;;;5035146;28;20373;-73
2022/04/25 04:39:19;;;;;;;8.13;3.35;;;7.00;99.90;;;;;;5054198;28;20033;-74
2022/04/25 04:41:45;;;;;;;6.38;3.20;;;7.00;99.90;;;;;;5051534;28;20179;-74
2022/04/25 04:44:11;;;;;;;7.05;3.25;;;7.00;99.90;;;;;;5055880;28;20025;-74
2022/04/25 04:46:37;;;;;;;7.32;3.30;;;7.00;99.90;;;;;;5054394;28;20095;-76
2022/04/25 04:49:03;;;;;;;9.43;3.55;;;7.00;99.90;;;;;;5020457;28;20222;-74
2022/04/25 04:51:28;;;;;;;8.10;3.03;;;7.00;99.90;;;;;;5052250;28;20025;-74
2022/04/25 04:53:59;;;;;;;10.40;3.60;;;6.90;99.90;;;;;;5052454;28;20500;-75
2022/04/25 04:56:26;;;;;;;9.60;3.80;;;6.90;99.90;;;;;;5029100;28;20478;-73
2022/04/25 04:58:53;;;;;;;5.80;2.80;;;6.90;99.90;;;;;;5051464;28;20048;-74
2022/04/25 05:01:19;;;;;;;5.15;2.65;;;6.80;99.90;;;;;;5049803;28;20021;-74
2022/04/25 05:03:45;;;;;;;6.03;2.80;;;6.90;99.90;;;;;;5027568;28;20036;-76
2022/04/25 05:06:11;;;;;;;4.68;2.65;;;6.90;99.90;;;;;;5044552;28;20551;-75
2022/04/25 05:08:37;;;;;;;7.78;3.63;;;6.90;99.90;;;;;;5019233;28;20036;-76
2022/04/25 05:11:04;;;;;;;6.53;2.70;;;7.00;99.90;;;;;;5037312;28;20013;-75
2022/04/25 05:13:31;;;;;;;3.60;2.53;;;7.00;99.90;;;;;;5051556;28;20061;-76
2022/04/25 05:15:57;;;;;;;7.28;2.95;;;7.10;99.90;;;;;;5038133;28;20558;-75
2022/04/25 05:18:23;;;;;;;6.35;2.60;;;7.10;99.90;;;;;;5033461;28;20033;-75
2022/04/25 05:20:48;;;;;;;5.47;2.80;;;7.10;99.90;;;;;;5045803;28;20032;-76
2022/04/25 05:23:15;;;;;;;6.85;2.90;;;7.10;99.90;;;;;;5024387;28;20111;-75
2022/04/25 05:25:41;;;;;;;11.07;2.80;;;7.20;99.90;;;;;;5014158;28;20439;-75
2022/04/25 05:28:07;;;;;;;5.80;2.80;;;7.20;99.90;;;;;;5034983;28;20028;-76
2022/04/25 05:30:33;;;;;;;7.57;2.95;;;7.20;99.90;;;;;;5037753;28;20032;-76
2022/04/25 05:33:02;;;;;;;6.80;2.30;;;7.30;99.90;;;;;;5059767;28;20029;-76
2022/04/25 05:35:35;;;;;;;6.43;2.25;;;7.50;99.90;;;;;;5032320;28;20029;-76
2022/04/25 05:38:02;;;;;;;8.07;2.67;;;7.70;99.90;;;;;;5040109;28;20079;-77
2022/04/25 05:40:29;;;;;;;4.38;2.00;;;8.00;99.90;;;;;;5035174;28;20044;-77
2022/04/25 05:42:57;;;;;;;11.63;3.28;;;8.00;99.90;;;;;;5041476;28;20032;-77
2022/04/25 05:45:24;;;;;;;5.57;3.30;;;7.90;99.90;;;;;;5036548;28;20032;-76
2022/04/25 05:47:54;;;;;;;5.25;2.22;;;7.90;99.90;;;;;;5041129;28;20122;-76
2022/04/25 05:53:05;;;;;;;8.77;2.58;;;7.70;99.90;;;;;;5054185;28;20077;-73
2022/04/25 05:55:31;;;;;;;5.00;2.58;;;7.70;99.90;;;;;;5017241;28;20524;-76
2022/04/25 05:57:58;;;;;;;6.68;2.78;;;7.70;99.90;;;;;;5055340;28;20040;-76
2022/04/25 06:00:25;;;;;;;7.00;2.53;;;7.70;99.90;;;;;;5036389;28;20125;-76
2022/04/25 06:02:51;;;;;;;7.03;2.70;;;7.80;99.90;;;;;;5053333;28;20043;-76
2022/04/25 06:05:17;;;;;;;7.63;2.35;;;7.80;99.90;;;;;;5017948;28;20396;-76
2022/04/25 06:07:45;;;;;;;9.38;2.70;;;7.80;99.90;;;;;;5016691;28;20039;-74
2022/04/25 06:10:13;;;;;;;6.57;2.40;;;7.80;99.90;;;;;;5049590;28;20103;-74
2022/04/25 06:12:43;;;;;;;6.65;2.60;;;7.90;99.90;;;;;;5036231;28;20170;-74
2022/04/25 06:15:10;;;;;;;4.85;2.25;;;7.90;99.90;;;;;;5038282;28;20029;-74
2022/04/25 06:17:36;;;;;;;6.15;2.15;;;8.00;99.90;;;;;;5055055;28;20035;-75
2022/04/25 06:20:04;;;;;;;6.70;2.65;;;8.00;99.90;;;;;;5053550;28;20551;-75
2022/04/25 06:22:30;;;;;;;5.50;2.38;;;8.00;99.90;;;;;;5014013;28;20033;-76
2022/04/25 06:24:56;;;;;;;4.90;2.20;;;8.00;99.90;;;;;;5036019;28;20498;-75
2022/04/25 06:27:22;;;;;;;7.20;2.80;;;8.00;99.90;;;;;;5057027;28;20033;-77
2022/04/25 06:29:47;;;;;;;4.28;1.90;;;8.10;99.90;;;;;;5041211;28;20055;-78
2022/04/25 06:32:13;;;;;;;7.28;2.13;;;8.10;99.90;;;;;;5024691;28;20028;-77
2022/04/25 06:34:40;;;;;;;5.43;2.33;;;8.10;99.90;;;;;;5044811;28;20063;-76
2022/04/25 06:37:06;;;;;;;6.38;2.20;;;8.20;99.90;;;;;;5054137;28;20100;-76
2022/04/25 06:39:33;;;;;;;7.22;2.30;;;8.30;99.90;;;;;;5039409;28;20043;-78
2022/04/25 06:42:00;;;;;;;6.07;2.75;;;8.30;99.90;;;;;;5054665;28;20024;-77
2022/04/25 06:44:27;;;;;;;6.82;2.40;;;8.30;99.90;;;;;;5038593;28;20028;-77
2022/04/25 06:46:53;;;;;;;6.80;2.70;;;8.30;99.90;;;;;;5055118;28;20478;-77
2022/04/25 06:49:24;;;;;;;6.30;2.90;;;8.30;99.90;;;;;;5048055;28;20125;-76
2022/04/25 06:51:52;;;;;;;4.20;2.33;;;8.40;99.90;;;;;;5015206;28;20024;-75
2022/04/25 06:54:19;;;;;;;5.68;2.28;;;8.50;99.90;;;;;;5064126;28;20044;-74
2022/04/25 06:56:44;;;;;;;4.40;1.98;;;8.50;99.90;;;;;;5065077;28;20515;-77
2022/04/25 06:59:11;;;;;;;4.72;2.40;;;8.50;99.90;;;;;;5038623;28;20029;-77
2022/04/25 07:01:39;;;;;;;5.28;2.13;;;8.50;99.90;;;;;;5048138;28;20036;-77
2022/04/25 07:04:06;;;;;;;4.90;2.40;;;8.60;99.90;;;;;;5039304;28;20069;-74
2022/04/25 07:06:33;;;;;;;5.15;2.25;;;8.70;99.90;;;;;;5026242;28;20108;-76
2022/04/25 07:08:59;;;;;;;8.30;2.70;;;8.70;99.90;;;;;;5046874;28;20028;-73
2022/04/25 07:11:25;;;;;;;4.50;2.42;;;8.80;99.90;;;;;;5044041;28;20032;-76
2022/04/25 07:13:51;;;;;;;5.20;2.50;;;8.80;99.90;;;;;;5051861;28;20056;-76
2022/04/25 07:16:17;;;;;;;5.45;2.65;;;8.90;99.90;;;;;;5058391;28;20487;-77
2022/04/25 07:18:43;;;;;;;5.93;2.25;;;8.90;99.90;;;;;;5040496;28;20040;-74
2022/04/25 07:29:23;;;;;;;5.00;2.40;;;9.10;99.90;;;;;;5061284;28;20026;-78
2022/04/25 07:31:51;;;;;;;4.50;2.60;;;9.20;99.90;;;;;;5043895;28;20894;-78
2022/04/25 07:34:19;;;;;;;6.30;2.60;;;9.30;99.90;;;;;;5050239;28;20082;-77
2022/04/25 07:36:51;;;;;;;5.28;2.10;;;9.30;99.90;;;;;;5062863;28;20062;-76
2022/04/25 07:39:18;;;;;;;4.75;2.60;;;9.30;99.90;;;;;;5028876;28;20033;-77
2022/04/25 07:41:44;;;;;;;4.45;2.30;;;9.30;99.90;;;;;;5055074;28;20578;-77
2022/04/25 07:44:10;;;;;;;5.35;2.38;;;9.40;99.90;;;;;;5036870;28;20049;-75
2022/04/25 07:46:40;;;;;;;4.55;2.17;;;9.50;99.90;;;;;;5022829;28;20029;-78
2022/04/25 07:49:09;;;;;;;4.80;2.70;;;9.50;99.90;;;;;;5047319;28;20116;-77
2022/04/25 07:51:42;;;;;;;7.57;2.67;;;9.50;99.90;;;;;;5063156;28;20078;-74
2022/04/25 07:54:09;;;;;;;5.28;2.10;;;9.50;99.90;;;;;;5045750;28;20270;-77
2022/04/25 07:56:38;;;;;;;4.07;2.10;;;9.50;99.90;;;;;;5029125;28;20079;-78
2022/04/25 07:59:05;;;;;;;4.78;2.17;;;9.60;99.90;;;;;;5056189;28;20055;-77
2022/04/25 08:01:32;;;;;;;4.03;1.88;;;9.60;99.90;;;;;;5057475;28;20100;-76
2022/04/25 08:04:01;;;;;;;5.80;2.70;;;9.70;99.90;;;;;;5026333;28;20086;-78
2022/04/25 08:06:27;;;;;;;6.50;2.65;;;9.70;99.90;;;;;;5045713;28;20400;-78
2022/04/25 08:08:54;;;;;;;5.40;2.47;;;9.80;99.90;;;;;;5062393;28;20025;-81
2022/04/25 08:11:21;;;;;;;4.85;2.55;;;9.80;99.90;;;;;;5063971;28;20020;-78
2022/04/25 08:19:17;;;;;;;5.18;2.20;;;10.00;99.90;;;;;;5055502;28;20025;-77
2022/04/25 08:21:44;;;;;;;5.22;2.00;;;10.10;99.90;;;;;;5049309;28;20777;-75
2022/04/25 08:24:11;;;;;;;4.78;2.45;;;10.20;99.90;;;;;;5052422;28;20111;-76
2022/04/25 08:26:37;;;;;;;9.40;2.70;;;10.30;99.90;;;;;;5053578;28;20435;-76
2022/04/25 08:29:03;;;;;;;6.57;2.30;;;10.30;99.90;;;;;;5057589;28;20020;-77
2022/04/25 08:31:30;;;;;;;3.13;1.98;;;10.40;99.50;;;;;;5041851;28;20029;-76
2022/04/25 08:33:57;;;;;;;4.25;2.53;;;10.50;99.90;;;;;;5036151;28;20682;-77
2022/04/25 08:36:23;;;;;;;4.93;2.05;;;10.60;99.90;;;;;;5032896;28;20036;-77
2022/04/25 08:38:49;;;;;;;4.72;2.28;;;10.70;99.60;;;;;;5039173;28;20063;-77
2022/04/25 08:41:17;;;;;;;6.30;2.80;;;10.70;99.50;;;;;;5022329;28;20029;-77
2022/04/25 08:43:43;;;;;;;6.18;2.10;;;10.70;99.10;;;;;;5041844;28;20046;-77
2022/04/25 08:46:10;;;;;;;4.03;2.00;;;10.70;99.30;;;;;;5042684;28;20113;-76
2022/04/25 08:48:39;;;;;;;5.05;2.72;;;10.70;99.30;;;;;;5058609;28;20025;-76
2022/04/25 08:51:06;;;;;;;7.15;3.00;;;10.80;99.40;;;;;;5025666;28;20029;-77
2022/04/25 08:53:35;;;;;;;5.10;2.83;;;10.80;99.20;;;;;;5025505;28;20036;-74
2022/04/25 08:56:03;;;;;;;7.18;2.50;;;10.90;99.30;;;;;;5064832;28;20033;-74
2022/04/25 08:58:31;;;;;;;5.60;2.60;;;10.80;99.00;;;;;;5044282;28;20060;-77
2022/04/25 09:00:59;;;;;;;5.15;3.33;;;10.90;99.40;;;;;;5069170;28;20196;-79
2022/04/25 09:03:25;;;;;;;7.57;2.88;;;10.90;98.90;;;;;;5051121;28;20112;-79
2022/04/25 09:05:51;;;;;;;4.45;2.80;;;11.00;99.70;;;;;;5053107;28;20044;-78
2022/04/25 09:08:17;;;;;;;5.15;2.97;;;11.20;99.90;;;;;;5030403;28;20036;-78
2022/04/25 09:10:47;;;;;;;6.18;3.00;;;11.40;98.80;;;;;;5053436;28;20024;-78
2022/04/25 09:13:13;;;;;;;5.38;2.90;;;11.40;98.10;;;;;;5064554;28;20036;-77
2022/04/25 09:15:39;;;;;;;7.72;3.20;;;11.40;97.90;;;;;;5043539;28;20035;-76
2022/04/25 09:18:04;;;;;;;5.63;2.85;;;11.40;98.20;;;;;;5051709;28;20028;-77
2022/04/25 09:20:31;;;;;;;6.45;2.95;;;11.30;98.20;;;;;;5063483;28;20039;-78
2022/04/25 09:22:58;;;;;;;5.68;2.55;;;11.30;98.50;;;;;;5046095;28;20028;-74
2022/04/25 09:25:24;;;;;;;4.43;2.35;;;11.40;98.80;;;;;;5046279;28;20071;-77
2022/04/25 09:28:13;;;;;;;6.55;3.10;;;11.50;98.60;;;;;;5030711;28;20025;-78
2022/04/25 09:30:39;;;;;;;5.00;2.65;;;11.60;98.40;;;;;;5065966;28;20048;-77
2022/04/25 09:33:21;;;;;;;5.30;2.92;;;11.70;98.20;;;;;;5064308;28;20029;-76
2022/04/25 09:35:53;;;;;;;4.38;2.17;;;11.70;97.70;;;;;;5054296;28;20088;-74
2022/04/25 09:38:29;;;;;;;4.72;2.67;;;11.80;97.80;;;;;;5043404;28;20976;-77
2022/04/25 09:40:55;;;;;;;6.03;2.45;;;11.90;97.90;;;;;;5044255;28;20120;-75
2022/04/25 09:43:31;;;;;;;5.80;2.75;;;12.00;97.90;;;;;;5061143;28;20122;-78
2022/04/25 09:46:04;;;;;;;4.10;2.55;;;12.00;97.20;;;;;;5046045;28;20029;-78
2022/04/25 09:48:29;;;;;;;8.10;2.40;;;12.10;96.70;;;;;;5056669;28;20047;-77
2022/04/25 09:50:59;;;;;;;4.70;2.60;;;12.10;96.70;;;;;;5064167;28;20016;-76
2022/04/25 09:53:50;;;;;;;4.93;2.58;;;12.20;96.90;;;;;;5043803;28;20025;-77
2022/04/25 09:56:18;;;;;;;6.78;2.33;;;12.30;96.60;;;;;;5029219;28;20032;-77
2022/04/25 09:59:00;;;;;;;4.05;2.65;;;12.30;96.50;;;;;;5039597;28;20024;-77
2022/04/25 10:01:26;;;;;;;8.30;2.80;;;12.40;96.20;;;;;;5041059;28;20037;-78
2022/04/25 10:03:52;;;;;;;3.95;2.63;;;12.50;95.90;;;;;;5045263;28;20028;-77
2022/04/25 10:06:21;;;;;;;3.85;2.40;;;12.50;95.60;;;;;;5035043;28;20025;-77
2022/04/25 10:08:47;;;;;;;5.32;2.80;;;12.50;95.10;;;;;;5055893;28;20028;-77
2022/04/25 10:11:17;;;;;;;5.75;2.55;;;12.50;94.70;;;;;;5053985;28;20051;-77
2022/04/25 10:13:45;;;;;;;3.60;2.50;;;12.50;95.00;;;;;;5047196;28;20037;-77
2022/04/25 10:16:11;;;;;;;4.88;3.00;;;12.50;94.40;;;;;;5014856;28;20513;-74
2022/04/25 10:18:38;;;;;;;5.07;2.67;;;12.60;94.10;;;;;;5017556;28;20021;-75
2022/04/25 10:21:07;;;;;;;5.43;2.95;;;12.50;94.20;;;;;;5033252;28;20503;-74
2022/04/25 10:23:36;;;;;;;4.30;2.83;;;12.50;94.70;;;;;;5032241;28;20031;-72
2022/04/25 10:26:39;;;;;;;6.38;2.47;;;12.50;94.60;;;;;;5034442;28;20029;-74
2022/04/25 10:29:26;;;;;;;4.78;2.25;;;12.60;94.80;;;;;;5051744;28;20565;-74
2022/04/25 10:31:58;;;;;;;3.97;2.40;;;12.70;94.40;;;;;;5030592;28;20053;-72
2022/04/25 10:34:45;;;;;;;5.47;2.70;;;12.80;93.80;;;;;;5033650;28;20056;-68
2022/04/25 10:37:40;;;;;;;5.78;2.67;;;12.90;93.40;;;;;;5052010;28;20115;-73
2022/04/25 10:40:08;;;;;;;4.78;2.85;;;12.90;93.70;;;;;;5054518;28;20024;-75
2022/04/25 10:46:01;;;;;;;5.18;2.53;;;13.00;92.90;;;;;;5051023;28;20207;-74
2022/04/25 10:48:27;;;;;;;5.55;2.25;;;13.10;92.90;;;;;;5028439;28;20099;-75
2022/04/25 10:51:10;;;;;;;3.80;2.75;;;13.10;92.90;;;;;;5035544;28;20036;-76
2022/04/25 10:54:01;;;;;;;3.95;2.42;;;13.30;92.70;;;;;;5034741;28;20043;-76
2022/04/25 10:56:28;;;;;;;4.47;2.72;;;13.40;92.70;;;;;;5056982;28;20023;-75
2022/04/25 10:59:23;;;;;;;3.50;2.03;;;13.50;92.20;;;;;;5031133;28;20033;-75
2022/04/25 11:01:51;;;;;;;4.20;2.50;;;13.60;91.50;;;;;;5048715;28;20118;-72
2022/04/25 11:04:18;;;;;;;3.47;2.60;;;13.80;90.90;;;;;;5030735;28;20156;-75
2022/04/25 11:06:45;;;;;;;3.42;2.20;;;14.00;90.00;;;;;;5035738;28;20067;-74
2022/04/25 11:09:10;;;;;;;3.00;2.42;;;14.40;89.50;;;;;;5033081;28;20035;-75
2022/04/25 11:11:53;;;;;;;3.63;1.98;;;15.80;90.70;;;;;;5057857;28;20033;-76
2022/04/25 11:14:20;;;;;;;4.80;1.88;;;17.70;84.90;;;;;;5034641;28;20502;-73
2022/04/25 11:17:14;;;;;;;4.13;2.38;;;19.50;72.40;;;;;;5034059;28;20120;-74
2022/04/25 11:19:53;;;;;;;4.78;2.33;;;21.50;66.40;;;;;;5034931;28;20059;-76
2022/04/25 11:22:38;;;;;;;3.80;2.00;;;23.20;57.90;;;;;;5052033;28;20104;-75
2022/04/25 11:25:24;;;;;;;3.10;2.13;;;25.10;53.30;;;;;;5057011;28;20048;-76
2022/04/25 11:28:07;;;;;;;3.10;2.42;;;26.30;50.00;;;;;;5016400;28;20025;-75
2022/04/25 11:30:33;;;;;;;3.53;1.95;;;27.40;46.90;;;;;;5050731;28;20028;-77
2022/04/25 11:33:04;;;;;;;2.83;1.83;;;28.00;44.10;;;;;;5040950;28;20092;-77
2022/04/25 11:35:31;;;;;;;3.45;1.90;;;28.40;42.60;;;;;;5053135;28;20033;-75
2022/04/25 11:37:58;;;;;;;2.92;2.00;;;28.70;42.10;;;;;;5037849;28;20442;-75
2022/04/25 11:40:24;;;;;;;3.22;2.40;;;28.40;40.10;;;;;;5037796;28;20044;-78
2022/04/25 11:42:52;;;;;;;3.08;1.90;;;28.00;41.10;;;;;;5039028;28;20043;-74
2022/04/25 11:45:20;;;;;;;2.40;2.17;;;27.10;42.70;;;;;;5041645;28;20036;-75
2022/04/25 11:47:46;;;;;;;2.30;2.00;;;26.40;42.90;;;;;;5036883;28;20024;-75
2022/04/25 11:50:12;;;;;;;2.53;1.92;;;26.10;43.60;;;;;;5032473;28;20086;-75
2022/04/25 11:52:45;;;;;;;2.47;2.10;;;25.60;44.50;;;;;;5039920;28;20108;-76
2022/04/25 11:55:12;;;;;;;3.33;2.13;;;24.90;43.70;;;;;;5039660;28;20047;-75
2022/04/25 11:57:39;;;;;;;2.58;2.10;;;24.40;46.10;;;;;;5054480;28;20688;-76
2022/04/25 12:00:24;;;;;;;2.92;1.90;;;24.00;45.90;;;;;;5036677;28;20481;-76
2022/04/25 12:02:50;;;;;;;2.75;1.92;;;24.20;46.30;;;;;;5020788;28;20028;-76
2022/04/25 12:05:31;;;;;;;3.17;2.20;;;24.60;45.20;;;;;;5035145;28;20051;-76
2022/04/25 12:16:19;;;;;;;3.58;2.25;;;24.80;43.40;;;;;;5014247;28;20037;-77
2022/04/25 12:18:50;;;;;;;3.40;1.65;;;25.10;43.30;;;;;;5035938;28;20044;-75
2022/04/25 12:21:17;;;;;;;2.60;1.58;;;25.50;42.70;;;;;;5036532;28;20094;-75
2022/04/25 12:23:54;;;;;;;2.20;2.00;;;25.50;43.20;;;;;;5036751;28;20108;-75
2022/04/25 12:26:27;;;;;;;3.03;2.38;;;25.20;41.50;;;;;;5036892;28;20033;-75
2022/04/25 12:29:00;;;;;;;2.88;2.30;;;25.20;41.90;;;;;;5024061;28;20029;-75
2022/04/25 12:31:30;;;;;;;3.15;2.50;;;25.30;41.30;;;;;;5056929;28;20082;-75
2022/04/25 12:34:05;;;;;;;3.00;2.08;;;25.20;42.40;;;;;;5036783;28;20033;-76
2022/04/25 12:36:32;;;;;;;4.63;2.30;;;25.60;41.70;;;;;;5034894;28;20029;-77
2022/04/25 12:39:01;;;;;;;2.60;2.38;;;25.80;40.30;;;;;;5035742;28;20036;-77
2022/04/25 12:41:31;;;;;;;2.75;1.83;;;26.40;40.20;;;;;;5055547;28;20025;-77
2022/04/25 12:44:16;;;;;;;2.10;1.90;;;26.80;40.20;;;;;;5031242;28;20096;-77
2022/04/25 12:46:47;;;;;;;3.58;2.00;;;27.10;39.80;;;;;;5020822;28;20525;-75
2022/04/25 12:49:22;;;;;;;3.80;2.33;;;27.80;39.00;;;;;;5032369;28;20056;-76
2022/04/25 12:51:52;;;;;;;4.82;2.00;;;28.20;38.00;;;;;;5016873;28;20078;-76
2022/04/25 12:54:26;;;;;;;4.35;1.75;;;28.10;38.50;;;;;;5048537;28;20108;-74
2022/04/25 12:57:16;;;;;;;3.63;2.40;;;28.50;37.40;;;;;;5036881;28;20246;-74
2022/04/25 13:00:01;;;;;;;4.55;2.03;;;28.40;36.40;;;;;;5016942;28;20032;-75
2022/04/25 13:02:26;;;;;;;2.85;1.70;;;28.60;36.30;;;;;;5052829;28;20051;-73
2022/04/25 13:04:58;;;;;;;3.17;2.10;;;28.90;36.60;;;;;;5032419;28;20522;-74
2022/04/25 13:07:30;;;;;;;4.97;1.70;;;29.10;36.30;;;;;;5021035;28;20179;-74
2022/04/25 13:09:57;;;;;;;3.63;2.22;;;29.30;36.00;;;;;;5048121;28;20021;-74
2022/04/25 13:12:30;;;;;;;4.60;2.10;;;29.70;34.80;;;;;;5056019;28;20562;-76
2022/04/25 13:14:55;;;;;;;5.07;2.05;;;29.60;33.80;;;;;;5037302;28;20078;-75
2022/04/25 13:17:21;;;;;;;2.25;2.05;;;28.30;35.10;;;;;;5032396;28;20029;-77
2022/04/25 13:19:47;;;;;;;4.15;2.28;;;28.30;35.60;;;;;;5051908;28;20499;-77
2022/04/25 13:22:12;;;;;;;2.03;1.70;;;28.70;36.20;;;;;;5035577;28;20028;-77
2022/04/25 13:24:38;;;;;;;4.18;1.73;;;28.90;35.40;;;;;;5038493;28;20083;-77
2022/04/25 13:27:06;;;;;;;2.50;1.90;;;29.20;35.90;;;;;;5036654;28;20020;-76
2022/04/25 13:29:33;;;;;;;2.95;2.10;;;29.20;34.60;;;;;;5054037;28;20035;-76
2022/04/25 13:31:59;;;;;;;2.60;2.10;;;29.30;34.60;;;;;;5052147;28;20039;-76
2022/04/25 13:34:26;;;;;;;2.67;1.88;;;29.30;33.70;;;;;;5037880;28;20040;-76